createdAt,value
2019-05-19T00:01:11.045Z,18.80
2019-05-19T00:03:42.994Z,18.35
2019-05-19T00:06:14.857Z,18.90
2019-05-19T00:08:47.184Z,19.77
2019-05-19T00:11:18.691Z,17.07
2019-05-19T00:13:50.695Z,17.27
2019-05-19T00:16:22.123Z,17.55
2019-05-19T00:18:53.993Z,18.77
2019-05-19T00:21:25.590Z,17.87
2019-05-19T00:23:59.756Z,18.20
2019-05-19T00:26:30.651Z,16.60
2019-05-19T00:29:03.691Z,16.40
2019-05-19T00:31:35.177Z,15.93
2019-05-19T00:34:07.306Z,17.25
2019-05-19T00:36:38.687Z,15.40
2019-05-19T00:39:10.518Z,16.05
2019-05-19T00:41:42.331Z,17.02
2019-05-19T00:44:13.950Z,17.80
2019-05-19T00:46:45.824Z,16.15
2019-05-19T00:49:17.566Z,17.37
2019-05-19T00:51:49.561Z,17.82
2019-05-19T00:54:21.287Z,14.20
2019-05-19T00:56:53.054Z,15.10
2019-05-19T00:59:24.559Z,15.53
2019-05-19T01:01:56.099Z,14.83
2019-05-19T01:04:27.807Z,14.25
2019-05-19T01:06:59.212Z,14.90
2019-05-19T01:09:31.170Z,15.32
2019-05-19T01:12:03.065Z,14.93
2019-05-19T01:14:34.578Z,15.63
2019-05-19T01:17:06.441Z,15.00
2019-05-19T01:19:38.208Z,14.30
2019-05-19T01:22:09.863Z,14.40
2019-05-19T01:24:41.438Z,17.55
2019-05-19T01:27:13.477Z,14.50
2019-05-19T01:29:45.126Z,14.23
2019-05-19T01:32:16.785Z,14.50
2019-05-19T01:34:48.357Z,13.65
2019-05-19T01:37:20.326Z,14.28
2019-05-19T01:39:51.731Z,13.58
2019-05-19T01:42:23.335Z,14.13
2019-05-19T01:44:55.251Z,13.90
2019-05-19T01:47:26.956Z,12.55
2019-05-19T01:50:16.549Z,13.43
2019-05-19T01:52:31.907Z,13.00
2019-05-19T01:55:03.936Z,12.95
2019-05-19T01:57:35.677Z,12.93
2019-05-19T02:00:08.846Z,13.68
2019-05-19T02:02:40.501Z,15.10
2019-05-19T02:05:12.192Z,12.30
2019-05-19T02:07:43.612Z,11.93
2019-05-19T02:10:17.900Z,12.10
2019-05-19T02:12:49.390Z,13.38
2019-05-19T02:15:21.466Z,14.25
2019-05-19T02:17:53.225Z,11.90
2019-05-19T02:20:32.647Z,13.58
2019-05-19T02:22:57.862Z,12.85
2019-05-19T02:25:29.822Z,12.00
2019-05-19T02:28:01.663Z,11.75
2019-05-19T02:30:33.246Z,12.43
2019-05-19T02:33:04.630Z,12.98
2019-05-19T02:35:36.458Z,13.08
2019-05-19T02:38:08.057Z,13.10
2019-05-19T02:40:40.412Z,12.10
2019-05-19T02:43:12.577Z,13.85
2019-05-19T02:45:44.071Z,12.65
2019-05-19T02:48:16.007Z,13.70
2019-05-19T02:50:52.156Z,13.00
2019-05-19T02:53:20.882Z,15.30
2019-05-19T02:55:52.448Z,12.70
2019-05-19T02:58:24.263Z,12.28
2019-05-19T03:00:55.804Z,11.63
2019-05-19T03:03:27.387Z,12.00
2019-05-19T03:05:59.227Z,11.95
2019-05-19T03:08:30.785Z,11.30
2019-05-19T03:11:02.415Z,11.93
2019-05-19T03:13:34.567Z,13.25
2019-05-19T03:16:06.191Z,11.45
2019-05-19T03:18:37.816Z,11.38
2019-05-19T03:21:11.686Z,11.55
2019-05-19T03:23:42.227Z,12.98
2019-05-19T03:26:13.738Z,11.08
2019-05-19T03:28:45.314Z,11.05
2019-05-19T03:31:27.524Z,12.03
2019-05-19T03:34:00.053Z,11.25
2019-05-19T03:36:31.829Z,11.33
2019-05-19T03:39:03.538Z,11.57
2019-05-19T03:41:35.425Z,12.47
2019-05-19T03:44:06.707Z,11.70
2019-05-19T03:46:38.491Z,10.75
2019-05-19T03:49:10.199Z,9.85
2019-05-19T03:51:42.035Z,10.78
2019-05-19T03:54:13.437Z,10.82
2019-05-19T03:56:45.157Z,11.40
2019-05-19T03:59:16.794Z,11.40
2019-05-19T04:01:48.622Z,12.37
2019-05-19T04:04:20.117Z,10.82
2019-05-19T04:06:51.853Z,10.43
2019-05-19T04:09:23.415Z,12.95
2019-05-19T04:11:55.153Z,13.00
2019-05-19T04:14:27.424Z,12.13
2019-05-19T04:16:59.019Z,11.68
2019-05-19T04:19:30.813Z,10.93
2019-05-19T04:22:02.455Z,11.28
2019-05-19T04:24:34.397Z,11.93
2019-05-19T04:27:06.017Z,11.78
2019-05-19T04:29:39.556Z,11.43
2019-05-19T04:32:11.023Z,11.45
2019-05-19T04:34:42.809Z,12.65
2019-05-19T04:37:14.323Z,10.13
2019-05-19T04:39:45.973Z,10.72
2019-05-19T04:42:17.641Z,10.00
2019-05-19T04:44:49.430Z,10.25
2019-05-19T04:47:21.290Z,9.95
2019-05-19T04:49:53.173Z,10.85
2019-05-19T04:52:24.658Z,11.03
2019-05-19T04:54:56.577Z,10.10
2019-05-19T04:57:28.160Z,10.32
2019-05-19T05:00:00.090Z,9.45
2019-05-19T05:02:31.735Z,10.88
2019-05-19T05:05:03.986Z,10.93
2019-05-19T05:07:35.693Z,11.80
2019-05-19T05:10:07.611Z,10.63
2019-05-19T05:12:38.957Z,11.10
2019-05-19T05:15:12.961Z,10.28
2019-05-19T05:17:44.565Z,10.90
2019-05-19T05:20:16.424Z,9.65
2019-05-19T05:22:48.151Z,10.90
2019-05-19T05:25:19.964Z,9.88
2019-05-19T05:27:51.581Z,11.73
2019-05-19T05:30:50.382Z,10.15
2019-05-19T05:33:22.079Z,9.85
2019-05-19T05:35:54.085Z,10.05
2019-05-19T05:38:25.808Z,9.43
2019-05-19T05:40:57.816Z,11.15
2019-05-19T05:43:29.491Z,8.80
2019-05-19T05:46:01.406Z,8.55
2019-05-19T05:48:32.911Z,9.15
2019-05-19T05:51:04.876Z,10.53
2019-05-19T05:53:36.454Z,8.70
2019-05-19T05:56:08.582Z,11.12
2019-05-19T05:58:40.190Z,10.18
2019-05-19T06:01:11.831Z,10.58
2019-05-19T06:03:43.554Z,10.65
2019-05-19T06:06:14.826Z,9.48
2019-05-19T06:08:46.673Z,8.78
2019-05-19T06:11:18.073Z,10.38
2019-05-19T06:13:49.878Z,9.43
2019-05-19T06:16:22.325Z,9.08
2019-05-19T06:18:56.687Z,8.98
2019-05-19T06:21:27.028Z,9.30
2019-05-19T06:23:58.511Z,9.55
2019-05-19T06:26:30.386Z,9.95
2019-05-19T06:29:01.996Z,10.90
2019-05-19T06:31:33.888Z,9.70
2019-05-19T06:34:05.448Z,9.70
2019-05-19T06:36:36.812Z,9.20
2019-05-19T06:39:09.215Z,9.68
2019-05-19T06:41:40.812Z,12.40
2019-05-19T06:44:12.894Z,10.03
2019-05-19T06:46:44.609Z,10.30
2019-05-19T06:49:16.026Z,8.93
2019-05-19T06:51:47.987Z,9.70
2019-05-19T06:54:19.675Z,9.40
2019-05-19T06:56:51.339Z,12.75
2019-05-19T06:59:23.195Z,10.80
2019-05-19T07:01:54.786Z,10.05
2019-05-19T07:04:26.440Z,11.63
2019-05-19T07:06:58.386Z,9.35
2019-05-19T07:09:29.999Z,13.00
2019-05-19T07:12:01.848Z,11.68
2019-05-19T07:14:33.889Z,11.03
2019-05-19T07:17:05.846Z,12.82
2019-05-19T07:19:37.538Z,10.15
2019-05-19T07:22:08.988Z,11.25
2019-05-19T07:24:40.893Z,10.20
2019-05-19T07:27:12.514Z,10.30
2019-05-19T07:29:43.906Z,10.72
2019-05-19T07:32:15.990Z,10.75
2019-05-19T07:34:47.632Z,10.60
2019-05-19T07:37:19.575Z,11.97
2019-05-19T07:39:51.107Z,10.95
2019-05-19T07:42:22.992Z,9.90
2019-05-19T07:44:54.822Z,11.43
2019-05-19T07:47:27.969Z,11.00
2019-05-19T07:49:59.545Z,10.25
2019-05-19T07:52:31.541Z,10.75
2019-05-19T07:55:03.041Z,10.72
2019-05-19T07:57:34.681Z,9.55
2019-05-19T08:00:08.157Z,11.25
2019-05-19T08:02:40.282Z,11.15
2019-05-19T08:05:11.890Z,9.95
2019-05-19T08:07:43.366Z,11.75
2019-05-19T08:10:15.123Z,10.00
2019-05-19T08:12:46.622Z,9.73
2019-05-19T08:15:18.371Z,10.65
2019-05-19T08:17:49.950Z,9.78
2019-05-19T08:20:24.143Z,10.03
2019-05-19T08:22:55.905Z,14.63
2019-05-19T08:25:27.641Z,9.73
2019-05-19T08:28:07.473Z,10.60
2019-05-19T08:30:32.542Z,9.55
2019-05-19T08:33:04.476Z,10.03
2019-05-19T08:35:36.038Z,10.68
2019-05-19T08:38:08.096Z,9.73
2019-05-19T08:40:39.521Z,9.48
2019-05-19T08:43:11.084Z,10.40
2019-05-19T08:45:42.747Z,9.50
2019-05-19T08:48:14.405Z,9.50
2019-05-19T08:50:46.273Z,9.28
2019-05-19T08:53:17.757Z,9.45
2019-05-19T08:55:49.567Z,9.25
2019-05-19T08:58:21.437Z,9.83
2019-05-19T09:00:53.079Z,9.85
2019-05-19T09:03:24.901Z,8.35
2019-05-19T09:05:56.603Z,8.60
2019-05-19T09:08:28.253Z,8.95
2019-05-19T09:10:59.844Z,9.28
2019-05-19T09:13:31.633Z,9.45
2019-05-19T09:16:03.667Z,9.33
2019-05-19T09:18:35.416Z,9.33
2019-05-19T09:21:07.247Z,9.45
2019-05-19T09:23:39.341Z,9.68
2019-05-19T09:26:10.726Z,9.35
2019-05-19T09:28:42.748Z,9.90
2019-05-19T09:31:14.274Z,9.60
2019-05-19T09:33:46.219Z,10.95
2019-05-19T09:36:18.066Z,10.43
2019-05-19T09:38:49.810Z,10.60
2019-05-19T09:41:21.164Z,9.83
2019-05-19T09:43:52.849Z,9.48
2019-05-19T09:46:24.819Z,10.03
2019-05-19T09:48:57.769Z,9.43
2019-05-19T09:51:29.586Z,10.20
2019-05-19T09:54:01.303Z,10.40
2019-05-19T09:56:33.044Z,13.48
2019-05-19T09:59:04.869Z,10.70
2019-05-19T10:01:36.433Z,10.58
2019-05-19T10:04:08.471Z,10.63
2019-05-19T10:06:39.955Z,9.58
2019-05-19T10:09:18.721Z,9.88
2019-05-19T10:12:04.194Z,9.53
2019-05-19T10:14:36.028Z,10.17
2019-05-19T10:17:07.659Z,9.25
2019-05-19T10:19:39.918Z,9.55
2019-05-19T10:22:11.729Z,9.05
2019-05-19T10:24:59.254Z,8.73
2019-05-19T10:27:17.087Z,10.25
2019-05-19T10:29:49.067Z,9.38
2019-05-19T10:32:20.853Z,9.38
2019-05-19T10:34:52.734Z,10.20
2019-05-19T10:37:24.425Z,9.78
2019-05-19T10:39:56.448Z,9.63
2019-05-19T10:42:28.206Z,9.10
2019-05-19T10:45:00.030Z,10.35
2019-05-19T10:47:31.979Z,10.00
2019-05-19T10:50:04.015Z,9.33
2019-05-19T10:52:35.766Z,8.55
2019-05-19T10:55:07.731Z,9.68
2019-05-19T10:57:39.685Z,8.93
2019-05-19T11:00:11.610Z,9.23
2019-05-19T11:02:43.173Z,10.45
2019-05-19T11:05:15.121Z,9.80
2019-05-19T11:07:46.883Z,9.23
2019-05-19T11:10:18.822Z,9.00
2019-05-19T11:12:50.445Z,9.10
2019-05-19T11:15:22.066Z,11.40
2019-05-19T11:17:53.722Z,10.13
2019-05-19T11:20:25.559Z,9.23
2019-05-19T11:22:57.215Z,9.45
2019-05-19T11:25:34.058Z,9.33
2019-05-19T11:28:04.328Z,10.13
2019-05-19T11:30:48.555Z,9.93
2019-05-19T11:33:20.145Z,9.50
2019-05-19T11:35:52.371Z,10.28
2019-05-19T11:38:23.990Z,10.60
2019-05-19T11:40:56.085Z,10.55
2019-05-19T11:43:27.809Z,10.85
2019-05-19T11:45:59.542Z,10.90
2019-05-19T11:48:31.460Z,11.10
2019-05-19T11:51:03.012Z,11.18
2019-05-19T11:53:35.058Z,10.25
2019-05-19T11:56:10.704Z,11.08
2019-05-19T11:58:40.282Z,11.83
2019-05-19T12:01:12.046Z,10.58
2019-05-19T12:03:43.651Z,9.58
2019-05-19T12:06:15.412Z,9.75
2019-05-19T12:08:47.295Z,11.10
2019-05-19T12:11:19.144Z,10.35
2019-05-19T12:13:50.989Z,10.70
2019-05-19T12:16:22.823Z,10.23
2019-05-19T12:18:57.349Z,10.10
2019-05-19T12:21:27.499Z,9.50
2019-05-19T12:24:00.223Z,10.38
2019-05-19T12:26:34.778Z,11.00
2019-05-19T12:29:05.454Z,9.70
2019-05-19T12:31:37.403Z,9.80
2019-05-19T12:34:09.089Z,10.20
2019-05-19T12:36:40.942Z,10.05
2019-05-19T12:39:12.780Z,10.40
2019-05-19T12:41:44.585Z,10.55
2019-05-19T12:44:16.332Z,9.65
2019-05-19T12:46:48.239Z,10.25
2019-05-19T12:49:20.292Z,10.50
2019-05-19T12:51:52.003Z,10.10
2019-05-19T12:54:23.897Z,10.48
2019-05-19T12:56:55.818Z,10.43
2019-05-19T12:59:27.891Z,10.32
2019-05-19T13:01:59.527Z,10.18
2019-05-19T13:04:31.324Z,10.65
2019-05-19T13:07:02.811Z,11.43
2019-05-19T13:09:34.630Z,11.48
2019-05-19T13:12:06.203Z,11.25
2019-05-19T13:14:38.037Z,10.55
2019-05-19T13:17:09.839Z,10.10
2019-05-19T13:19:41.543Z,10.28
2019-05-19T13:22:13.152Z,10.40
2019-05-19T13:24:45.344Z,11.08
2019-05-19T13:27:17.646Z,10.35
2019-05-19T13:29:49.650Z,9.95
2019-05-19T13:32:21.629Z,9.65
2019-05-19T13:34:53.586Z,11.33
2019-05-19T13:37:25.359Z,10.32
2019-05-19T13:39:57.377Z,11.48
2019-05-19T13:42:29.094Z,10.93
2019-05-19T13:45:01.139Z,10.95
2019-05-19T13:47:32.995Z,10.78
2019-05-19T13:50:04.984Z,10.60
2019-05-19T13:52:36.959Z,10.80
2019-05-19T13:55:09.103Z,11.73
2019-05-19T13:57:40.764Z,11.35
2019-05-19T14:00:13.228Z,11.75
2019-05-19T14:02:45.131Z,11.57
2019-05-19T14:05:17.077Z,11.78
2019-05-19T14:07:48.810Z,11.12
2019-05-19T14:10:20.744Z,11.53
2019-05-19T14:12:52.825Z,12.10
2019-05-19T14:15:24.739Z,11.93
2019-05-19T14:17:56.536Z,12.07
2019-05-19T14:20:28.280Z,10.88
2019-05-19T14:23:00.098Z,11.00
2019-05-19T14:25:32.186Z,10.72
2019-05-19T14:28:08.263Z,11.48
2019-05-19T14:30:40.394Z,11.28
2019-05-19T14:33:12.179Z,11.83
2019-05-19T14:35:44.284Z,11.33
2019-05-19T14:38:16.261Z,12.40
2019-05-19T14:40:49.605Z,13.90
2019-05-19T14:43:23.007Z,12.65
2019-05-19T14:45:55.154Z,12.73
2019-05-19T14:48:26.961Z,12.37
2019-05-19T14:50:58.935Z,14.40
2019-05-19T14:53:31.147Z,13.93
2019-05-19T14:56:02.995Z,13.00
2019-05-19T14:58:34.689Z,13.85
2019-05-19T15:01:06.496Z,15.58
2019-05-19T15:03:38.418Z,13.60
2019-05-19T15:06:10.390Z,13.48
2019-05-19T15:08:44.999Z,14.33
2019-05-19T15:11:16.829Z,13.70
2019-05-19T15:13:48.741Z,14.05
2019-05-19T15:16:20.919Z,14.00
2019-05-19T15:18:52.614Z,13.48
2019-05-19T15:21:24.763Z,14.00
2019-05-19T15:23:56.634Z,14.90
2019-05-19T15:26:28.635Z,13.65
2019-05-19T15:29:00.791Z,14.15
2019-05-19T15:31:34.054Z,14.58
2019-05-19T15:34:05.807Z,13.40
2019-05-19T15:36:37.857Z,14.35
2019-05-19T15:39:09.726Z,13.62
2019-05-19T15:41:41.468Z,12.68
2019-05-19T15:44:13.292Z,13.50
2019-05-19T15:46:45.354Z,13.22
2019-05-19T15:49:17.209Z,13.20
2019-05-19T15:52:00.347Z,13.78
2019-05-19T15:54:22.244Z,13.72
2019-05-19T15:56:54.225Z,12.07
2019-05-19T15:59:26.276Z,13.20
2019-05-19T16:01:58.377Z,14.23
2019-05-19T16:04:30.219Z,14.58
2019-05-19T16:07:02.123Z,13.00
2019-05-19T16:09:33.757Z,14.53
2019-05-19T16:12:08.442Z,13.62
2019-05-19T16:14:40.534Z,14.03
2019-05-19T16:17:12.223Z,13.80
2019-05-19T16:19:44.326Z,13.98
2019-05-19T16:22:16.123Z,13.65
2019-05-19T16:24:48.109Z,13.05
2019-05-19T16:27:20.037Z,13.43
2019-05-19T16:29:52.438Z,14.23
2019-05-19T16:32:24.198Z,15.28
2019-05-19T16:34:56.172Z,14.18
2019-05-19T16:37:28.169Z,13.00
2019-05-19T16:40:00.123Z,14.98
2019-05-19T16:42:31.960Z,15.03
2019-05-19T16:45:03.750Z,14.25
2019-05-19T16:47:35.196Z,13.10
2019-05-19T16:50:08.171Z,14.28
2019-05-19T16:52:39.810Z,14.95
2019-05-19T16:55:28.384Z,15.60
2019-05-19T16:58:00.221Z,14.33
2019-05-19T17:00:32.407Z,13.83
2019-05-19T17:03:04.168Z,15.10
2019-05-19T17:05:36.020Z,14.13
2019-05-19T17:08:07.610Z,15.55
2019-05-19T17:10:39.568Z,13.58
2019-05-19T17:13:11.074Z,14.78
2019-05-19T17:15:43.080Z,13.50
2019-05-19T17:18:14.848Z,12.90
2019-05-19T17:20:46.867Z,13.60
2019-05-19T17:23:18.354Z,14.05
2019-05-19T17:25:49.828Z,14.15
2019-05-19T17:28:22.091Z,14.20
2019-05-19T17:30:54.235Z,13.60
2019-05-19T17:33:26.026Z,14.47
2019-05-19T17:35:57.847Z,13.20
2019-05-19T17:38:29.801Z,13.22
2019-05-19T17:41:01.450Z,13.38
2019-05-19T17:43:33.184Z,12.55
2019-05-19T17:46:04.811Z,13.08
2019-05-19T17:48:36.648Z,13.70
2019-05-19T17:51:08.495Z,13.55
2019-05-19T17:53:40.175Z,12.98
2019-05-19T17:56:11.788Z,13.13
2019-05-19T17:58:43.635Z,13.03
2019-05-19T18:01:15.268Z,12.75
2019-05-19T18:03:47.020Z,13.03
2019-05-19T18:06:18.396Z,12.25
2019-05-19T18:08:50.049Z,13.45
2019-05-19T18:11:21.998Z,13.53
2019-05-19T18:13:53.855Z,13.70
2019-05-19T18:16:25.839Z,12.85
2019-05-19T18:18:57.686Z,13.32
2019-05-19T18:21:29.567Z,12.37
2019-05-19T18:24:01.135Z,13.35
2019-05-19T18:26:32.984Z,14.63
2019-05-19T18:29:04.846Z,13.28
2019-05-19T18:31:36.601Z,12.82
2019-05-19T18:34:08.997Z,12.75
2019-05-19T18:36:40.643Z,12.68
2019-05-19T18:39:12.136Z,13.83
2019-05-19T18:41:44.077Z,13.35
2019-05-19T18:44:15.695Z,12.37
2019-05-19T18:46:47.114Z,13.60
2019-05-19T18:49:19.284Z,13.30
2019-05-19T18:51:50.814Z,14.18
2019-05-19T18:54:22.678Z,13.55
2019-05-19T18:56:54.419Z,14.03
2019-05-19T18:59:26.088Z,13.78
2019-05-19T19:01:57.886Z,12.85
2019-05-19T19:04:29.737Z,13.28
2019-05-19T19:07:01.766Z,13.62
2019-05-19T19:09:33.374Z,13.25
2019-05-19T19:12:05.316Z,13.60
2019-05-19T19:14:36.837Z,13.70
2019-05-19T19:17:08.623Z,13.93
2019-05-19T19:19:40.499Z,13.53
2019-05-19T19:22:12.158Z,14.00
2019-05-19T19:24:43.866Z,13.13
2019-05-19T19:27:15.429Z,11.80
2019-05-19T19:30:01.932Z,12.23
2019-05-19T19:32:20.115Z,13.28
2019-05-19T19:34:51.943Z,11.78
2019-05-19T19:37:23.873Z,13.13
2019-05-19T19:39:55.556Z,13.05
2019-05-19T19:42:27.372Z,12.35
2019-05-19T19:44:59.007Z,13.43
2019-05-19T19:47:31.087Z,12.75
2019-05-19T19:50:02.748Z,12.25
2019-05-19T19:52:34.548Z,12.30
2019-05-19T19:55:06.491Z,12.80
2019-05-19T19:57:38.282Z,13.03
2019-05-19T20:00:17.841Z,12.60
2019-05-19T20:02:43.306Z,11.70
2019-05-19T20:05:15.174Z,12.58
2019-05-19T20:07:46.806Z,12.93
2019-05-19T20:10:18.185Z,12.40
2019-05-19T20:12:50.156Z,13.25
2019-05-19T20:15:21.896Z,12.75
2019-05-19T20:17:53.386Z,11.85
2019-05-19T20:20:25.214Z,12.25
2019-05-19T20:22:56.900Z,13.60
2019-05-19T20:25:28.647Z,12.78
2019-05-19T20:28:00.281Z,12.90
2019-05-19T20:30:35.826Z,11.30
2019-05-19T20:33:04.867Z,12.10
2019-05-19T20:35:36.607Z,12.70
2019-05-19T20:38:10.752Z,12.63
2019-05-19T20:40:42.296Z,13.35
2019-05-19T20:43:14.306Z,11.90
2019-05-19T20:45:45.905Z,12.18
2019-05-19T20:48:17.486Z,11.60
2019-05-19T20:50:49.314Z,13.08
2019-05-19T20:53:20.963Z,12.55
2019-05-19T20:55:52.948Z,12.40
2019-05-19T20:58:24.523Z,12.47
2019-05-19T21:00:56.321Z,12.45
2019-05-19T21:03:28.009Z,11.88
2019-05-19T21:05:59.858Z,13.58
2019-05-19T21:08:31.156Z,13.72
2019-05-19T21:11:03.094Z,12.75
2019-05-19T21:13:34.878Z,13.20
2019-05-19T21:16:06.703Z,11.33
2019-05-19T21:18:38.367Z,13.13
2019-05-19T21:21:10.172Z,12.18
2019-05-19T21:23:42.013Z,11.70
2019-05-19T21:26:13.801Z,13.05
2019-05-19T21:28:45.402Z,13.62
2019-05-19T21:31:17.076Z,11.93
2019-05-19T21:33:48.995Z,12.28
2019-05-19T21:36:20.566Z,13.00
2019-05-19T21:38:52.702Z,13.22
2019-05-19T21:41:24.145Z,13.03
2019-05-19T21:43:56.183Z,12.58
2019-05-19T21:46:27.961Z,12.98
2019-05-19T21:48:59.590Z,13.80
2019-05-19T21:51:31.378Z,12.98
2019-05-19T21:54:02.934Z,14.23
2019-05-19T21:56:34.899Z,14.35
2019-05-19T21:59:06.557Z,12.73
2019-05-19T22:01:38.440Z,13.53
2019-05-19T22:04:10.039Z,13.35
2019-05-19T22:06:43.176Z,13.28
2019-05-19T22:09:14.828Z,13.60
2019-05-19T22:11:46.896Z,13.30
2019-05-19T22:14:18.564Z,15.65
2019-05-19T22:16:50.566Z,13.05
2019-05-19T22:19:22.272Z,13.65
2019-05-19T22:21:54.034Z,13.20
2019-05-19T22:24:25.698Z,16.15
2019-05-19T22:26:57.658Z,15.68
2019-05-19T22:29:29.160Z,15.78
2019-05-19T22:32:00.887Z,14.90
2019-05-19T22:34:32.787Z,15.53
2019-05-19T22:37:04.292Z,14.83
2019-05-19T22:39:36.414Z,16.05
2019-05-19T22:42:07.953Z,15.32
2019-05-19T22:44:39.778Z,14.33
2019-05-19T22:47:11.452Z,14.73
2019-05-19T22:49:43.282Z,14.65
2019-05-19T22:52:15.009Z,13.62
2019-05-19T22:54:46.763Z,14.85
2019-05-19T22:57:18.512Z,14.73
2019-05-19T22:59:50.477Z,13.65
2019-05-19T23:02:22.230Z,14.03
2019-05-19T23:04:54.123Z,13.70
2019-05-19T23:07:25.657Z,12.40
2019-05-19T23:09:57.223Z,14.33
2019-05-19T23:12:29.120Z,14.83
2019-05-19T23:15:00.742Z,13.90
2019-05-19T23:17:32.539Z,12.98
2019-05-19T23:20:04.152Z,13.80
2019-05-19T23:22:36.106Z,14.00
2019-05-19T23:25:08.006Z,14.10
2019-05-19T23:27:39.796Z,14.68
2019-05-19T23:30:47.827Z,13.58
2019-05-19T23:33:19.685Z,15.90
2019-05-19T23:35:51.455Z,14.30
2019-05-19T23:38:23.269Z,13.48
2019-05-19T23:40:57.433Z,13.98
2019-05-19T23:43:29.199Z,13.38
2019-05-19T23:46:00.724Z,13.32
2019-05-19T23:48:32.542Z,12.68
2019-05-19T23:51:04.097Z,13.80
2019-05-19T23:53:35.630Z,13.30
2019-05-19T23:56:07.494Z,13.38
2019-05-19T23:58:39.065Z,14.98
